Huvudsida
METAR-TAF:

METAR-TAF

Flygplatser :

Molde flygplats. Årø

Molde, Norge

latitud: 62-45N, longitud: 007-16E, höjd: 0 m

Aktuellt väderrapport

Denna rapport gjordes för 24 minuter sedan, klockan 17:50 UTC
Vind 12 kt från ost
Temperatur 3°C
Fuktighet 44%
Tryck 1011 hPa
Sikt 10 km eller mer
Inga moln under 1 500 m eller inga cumulonimbus

METAR: ENML 161750Z 09012KT CAVOK 03/M08 Q1011

Tid: 19:14 (18:14 UTC)

Väderprognos

Denna rapport gjordes för 1 timme och 14 minuter sedan, klockan 17:00 UTC
Prognos gäller från 16 kl. 18 UTC till 16 kl. 23 UTC
Vind 9 kt från ost/nordost
Sikt 10 km eller mer
Inga moln under 1 500 m eller inga cumulonimbus

TAF: ENML 161700Z 1618/1623 06009KT CAVOK

Aktuella väderrapporter och prognoser från 4000 flygplatser (METAR- och TAF-rapporter).

De tillgängliga stationerna syns som gula och röda prickar på kartan.

För musen över prickarna för att se namnen på stationerna.

Klicka sedan för att få väderrapporter och prognoser.

För att ändra kartan: Klicka på de gröna knapparna med ett svart kors på för att zooma in; den gröna knappen med ett streck på för att zooma ut; eller på de gröna pilarna för angränsande kartor.


METAR-TAF: